Terminal Aerodrome Forecast
Issued by NWS

Home | Current Version | Previous Version | Text Only | Print | Product List | Glossary On
Versions: 1 2 3 4 5 6 7 8 9 10 11 12 13 14 15 16 17 18 19 20 21 22 23 24 25 26 27 28 29 30 31 32 33 34 35 36 37 38
000
FTUS45 KBOI 090739 AAA
TAFJER
TAF AMD
KJER 090739Z 0908/1006 04020KT P6SM VCSH SCT020 BKN045
      TEMPO 0908/0909 6SM -FZRA BR BKN035
     FM091500 07007KT 3SM -RA OVC025=

USA.gov is the U.S. government's official web portal to all federal, state and local government web resources and services.